createdAt,value
2023-05-20T00:00:08.240Z,95.50
2023-05-20T00:02:36.120Z,95.40
2023-05-20T00:05:08.310Z,95.40
2023-05-20T00:07:35.693Z,95.50
2023-05-20T00:10:02.506Z,95.50
2023-05-20T00:12:29.384Z,95.50
2023-05-20T00:14:56.429Z,95.60
2023-05-20T00:17:23.406Z,95.60
2023-05-20T00:19:50.229Z,95.70
2023-05-20T00:22:17.201Z,95.90
2023-05-20T00:24:47.286Z,95.90
2023-05-20T00:27:18.606Z,96.00
2023-05-20T00:29:46.233Z,96.00
2023-05-20T00:32:16.481Z,96.00
2023-05-20T00:34:44.372Z,96.10
2023-05-20T00:37:11.375Z,96.40
2023-05-20T00:39:41.490Z,96.20
2023-05-20T00:42:08.527Z,96.20
2023-05-20T00:44:35.495Z,96.20
2023-05-20T00:47:02.475Z,96.30
2023-05-20T00:49:32.801Z,96.40
2023-05-20T00:52:00.047Z,96.50
2023-05-20T00:54:27.168Z,96.40
2023-05-20T00:56:54.547Z,96.50
2023-05-20T00:59:21.566Z,96.40
2023-05-20T01:01:49.268Z,96.40
2023-05-20T01:04:19.710Z,96.40
2023-05-20T01:06:50.043Z,96.50
2023-05-20T01:09:16.912Z,96.50
2023-05-20T01:11:51.221Z,96.50
2023-05-20T01:14:19.135Z,96.60
2023-05-20T01:16:48.236Z,96.70
2023-05-20T01:19:42.276Z,96.70
2023-05-20T01:22:13.016Z,96.80
2023-05-20T01:24:45.283Z,96.70
2023-05-20T01:27:13.629Z,96.80
2023-05-20T01:29:41.797Z,96.80
2023-05-20T01:32:15.473Z,97.10
2023-05-20T01:34:43.218Z,97.50
2023-05-20T01:37:11.110Z,97.20
2023-05-20T01:39:41.816Z,97.60
2023-05-20T01:42:10.474Z,97.20
2023-05-20T01:44:37.823Z,97.30
2023-05-20T01:47:04.922Z,97.30
2023-05-20T01:49:32.033Z,97.30
2023-05-20T01:51:59.449Z,97.40
2023-05-20T01:54:26.531Z,97.40
2023-05-20T01:56:53.729Z,97.40
2023-05-20T01:59:20.744Z,97.50
2023-05-20T02:01:47.855Z,97.60
2023-05-20T02:04:14.860Z,97.60
2023-05-20T02:06:41.809Z,97.60
2023-05-20T02:09:08.668Z,97.70
2023-05-20T02:11:36.357Z,97.80
2023-05-20T02:14:03.324Z,98.00
2023-05-20T02:16:30.511Z,98.20
2023-05-20T02:18:58.700Z,97.90
2023-05-20T02:21:26.549Z,98.00
2023-05-20T02:23:53.480Z,98.10
2023-05-20T02:26:20.849Z,98.00
2023-05-20T02:28:50.890Z,98.10
2023-05-20T02:31:18.234Z,98.20
2023-05-20T02:33:46.021Z,98.10
2023-05-20T02:36:13.072Z,98.20
2023-05-20T02:38:40.083Z,98.20
2023-05-20T02:41:07.006Z,98.10
2023-05-20T02:43:34.536Z,98.20
2023-05-20T02:46:01.510Z,98.10
2023-05-20T02:48:28.496Z,98.00
2023-05-20T02:50:55.911Z,98.00
2023-05-20T02:53:22.972Z,98.10
2023-05-20T02:55:50.484Z,98.10
2023-05-20T02:58:17.645Z,98.10
2023-05-20T03:00:44.691Z,98.10
2023-05-20T03:03:11.882Z,98.20
2023-05-20T03:05:38.809Z,98.20
2023-05-20T03:08:10.476Z,98.30
2023-05-20T03:10:38.924Z,98.40
2023-05-20T03:13:11.694Z,98.40
2023-05-20T03:15:42.976Z,98.40
2023-05-20T03:18:09.923Z,98.30
2023-05-20T03:20:38.442Z,98.30
2023-05-20T03:23:06.006Z,98.40
2023-05-20T03:25:33.180Z,98.50
2023-05-20T03:28:00.307Z,98.50
2023-05-20T03:30:28.070Z,98.60
2023-05-20T03:32:57.903Z,98.70
2023-05-20T03:35:25.892Z,98.60
2023-05-20T03:37:53.476Z,98.70
2023-05-20T03:40:21.405Z,98.80
2023-05-20T03:42:48.411Z,98.90
2023-05-20T03:45:15.661Z,99.30
2023-05-20T03:47:42.539Z,99.30
2023-05-20T03:50:09.959Z,98.90
2023-05-20T03:52:37.274Z,99.00
2023-05-20T03:55:04.579Z,99.10
2023-05-20T03:57:32.412Z,98.90
2023-05-20T03:59:59.370Z,99.10
2023-05-20T04:02:26.331Z,99.10
2023-05-20T04:04:53.266Z,99.10
2023-05-20T04:07:20.130Z,99.10
2023-05-20T04:09:46.973Z,99.20
2023-05-20T04:12:14.069Z,99.30
2023-05-20T04:14:42.520Z,99.40
2023-05-20T04:17:09.753Z,99.30
2023-05-20T04:19:38.324Z,99.50
2023-05-20T04:22:05.513Z,99.30
2023-05-20T04:24:32.425Z,99.30
2023-05-20T04:26:59.409Z,99.40
2023-05-20T04:29:26.294Z,99.30
2023-05-20T04:31:53.764Z,99.30
2023-05-20T04:34:26.974Z,99.30
2023-05-20T04:36:53.954Z,99.30
2023-05-20T04:39:20.944Z,99.30
2023-05-20T04:41:48.547Z,99.40
2023-05-20T04:44:15.339Z,99.40
2023-05-20T04:46:42.309Z,99.80
2023-05-20T04:49:09.471Z,99.50
2023-05-20T04:51:36.383Z,99.50
2023-05-20T04:54:03.263Z,99.60
2023-05-20T04:56:30.085Z,99.60
2023-05-20T04:58:58.879Z,99.90
2023-05-20T05:01:25.786Z,99.70
2023-05-20T05:03:52.886Z,99.60
2023-05-20T05:06:19.817Z,99.60
2023-05-20T05:08:46.818Z,99.60
2023-05-20T05:11:13.720Z,99.70
2023-05-20T05:13:40.734Z,99.60
2023-05-20T05:16:07.816Z,99.70
2023-05-20T05:18:35.421Z,99.70
2023-05-20T05:21:06.658Z,99.70
2023-05-20T05:23:34.118Z,99.70
2023-05-20T05:26:01.151Z,99.70
2023-05-20T05:28:28.207Z,99.70
2023-05-20T05:30:56.661Z,99.70
2023-05-20T05:33:23.637Z,99.60
2023-05-20T05:35:50.930Z,99.60
2023-05-20T05:38:18.143Z,99.50
2023-05-20T05:40:45.039Z,99.50
2023-05-20T05:43:11.961Z,99.50
2023-05-20T05:45:39.391Z,99.40
2023-05-20T05:48:06.600Z,99.30
2023-05-20T05:50:33.934Z,99.30
2023-05-20T05:53:01.158Z,99.30
2023-05-20T05:55:28.141Z,99.30
2023-05-20T05:57:55.118Z,99.30
2023-05-20T06:00:22.731Z,99.30
2023-05-20T06:02:50.202Z,99.20
2023-05-20T06:05:17.805Z,99.20
2023-05-20T06:07:44.793Z,99.10
2023-05-20T06:10:12.068Z,99.10
2023-05-20T06:12:39.052Z,99.00
2023-05-20T06:15:07.987Z,99.00
2023-05-20T06:17:34.836Z,98.90
2023-05-20T06:20:01.901Z,98.80
2023-05-20T06:22:32.214Z,98.80
2023-05-20T06:25:05.004Z,98.70
2023-05-20T06:27:32.170Z,98.60
2023-05-20T06:29:59.357Z,98.50
2023-05-20T06:32:27.910Z,98.40
2023-05-20T06:34:54.960Z,98.30
2023-05-20T06:37:24.652Z,98.20
2023-05-20T06:39:54.243Z,98.20
2023-05-20T06:42:21.992Z,98.10
2023-05-20T06:44:49.383Z,97.90
2023-05-20T06:47:21.637Z,97.70
2023-05-20T06:49:55.518Z,97.60
2023-05-20T06:52:27.707Z,97.40
2023-05-20T06:55:05.201Z,97.20
2023-05-20T06:57:37.156Z,97.10
2023-05-20T07:00:06.364Z,96.90
2023-05-20T07:02:36.670Z,96.90
2023-05-20T07:05:08.704Z,96.40
2023-05-20T07:07:40.496Z,96.30
2023-05-20T07:10:12.534Z,96.00
2023-05-20T07:12:44.075Z,95.80
2023-05-20T07:15:11.584Z,95.50
2023-05-20T07:17:50.800Z,95.10
2023-05-20T07:20:25.394Z,94.70
2023-05-20T07:23:01.489Z,94.30
2023-05-20T07:25:32.106Z,94.10
2023-05-20T07:28:06.793Z,93.80
2023-05-20T07:30:37.296Z,93.40
2023-05-20T07:33:04.938Z,93.20
2023-05-20T07:35:39.196Z,92.60
2023-05-20T07:38:06.337Z,92.30
2023-05-20T07:40:37.223Z,91.80
2023-05-20T07:43:09.420Z,91.40
2023-05-20T07:45:40.156Z,91.40
2023-05-20T07:48:11.198Z,91.30
2023-05-20T07:50:39.544Z,91.10
2023-05-20T07:53:07.494Z,90.90
2023-05-20T07:55:39.365Z,90.80
2023-05-20T07:58:06.654Z,90.40
2023-05-20T08:00:37.548Z,90.10
2023-05-20T08:03:05.004Z,89.50
2023-05-20T08:05:32.373Z,88.60
2023-05-20T08:07:59.719Z,88.80
2023-05-20T08:10:26.810Z,87.80
2023-05-20T08:12:58.230Z,87.40
2023-05-20T08:15:33.449Z,87.00
2023-05-20T08:18:04.524Z,87.10
2023-05-20T08:20:36.888Z,86.80
2023-05-20T08:23:07.289Z,86.40
2023-05-20T08:25:38.746Z,85.40
2023-05-20T08:28:13.168Z,84.70
2023-05-20T08:30:44.838Z,82.60
2023-05-20T08:33:19.521Z,82.60
2023-05-20T08:35:48.104Z,82.40
2023-05-20T08:38:20.858Z,82.20
2023-05-20T08:40:53.953Z,79.60
2023-05-20T08:43:25.036Z,78.80
2023-05-20T08:45:52.939Z,80.00
2023-05-20T08:48:22.471Z,78.50
2023-05-20T08:50:57.597Z,78.50
2023-05-20T08:53:25.143Z,77.80
2023-05-20T08:56:00.803Z,77.40
2023-05-20T08:58:33.131Z,77.00
2023-05-20T09:01:00.487Z,77.20
2023-05-20T09:03:27.765Z,76.70
2023-05-20T09:06:06.844Z,76.10
2023-05-20T09:08:34.739Z,75.20
2023-05-20T09:11:02.773Z,74.90
2023-05-20T09:13:32.922Z,74.60
2023-05-20T09:16:01.786Z,73.70
2023-05-20T09:18:29.498Z,73.60
2023-05-20T09:20:57.555Z,73.10
2023-05-20T09:23:28.156Z,73.60
2023-05-20T09:25:55.288Z,73.70
2023-05-20T09:28:25.378Z,73.40
2023-05-20T09:30:59.298Z,73.00
2023-05-20T09:33:32.401Z,72.00
2023-05-20T09:36:04.952Z,71.40
2023-05-20T09:38:39.996Z,71.70
2023-05-20T09:41:10.461Z,71.40
2023-05-20T09:43:38.214Z,71.20
2023-05-20T09:46:06.033Z,70.60
2023-05-20T09:48:36.415Z,70.30
2023-05-20T09:51:05.724Z,70.40
2023-05-20T09:53:32.718Z,70.50
2023-05-20T09:55:59.873Z,70.00
2023-05-20T09:58:27.687Z,70.00
2023-05-20T10:00:54.487Z,69.00
2023-05-20T10:03:25.297Z,68.70
2023-05-20T10:06:05.864Z,68.40
2023-05-20T10:09:01.605Z,68.40
2023-05-20T10:11:34.891Z,68.10
2023-05-20T10:14:20.853Z,67.30
2023-05-20T10:17:23.806Z,67.00
2023-05-20T10:19:51.615Z,65.90
2023-05-20T10:22:33.954Z,65.70
2023-05-20T10:25:07.178Z,65.50
2023-05-20T10:27:47.968Z,66.00
2023-05-20T10:30:22.492Z,65.00
2023-05-20T10:32:57.583Z,65.00
2023-05-20T10:35:28.677Z,64.30
2023-05-20T10:38:10.956Z,64.90
2023-05-20T10:40:38.130Z,64.70
2023-05-20T10:43:12.915Z,64.40
2023-05-20T10:45:54.548Z,63.50
2023-05-20T10:48:32.469Z,63.50
2023-05-20T10:51:05.615Z,62.00
2023-05-20T10:53:41.458Z,62.10
2023-05-20T10:56:18.829Z,61.40
2023-05-20T10:58:45.862Z,60.90
2023-05-20T11:01:14.150Z,60.90
2023-05-20T11:03:42.050Z,61.50
2023-05-20T11:06:13.724Z,61.90
2023-05-20T11:08:41.938Z,61.70
2023-05-20T11:11:10.682Z,61.20
2023-05-20T11:13:37.732Z,60.60
2023-05-20T11:16:05.338Z,60.20
2023-05-20T11:18:32.266Z,59.50
2023-05-20T11:21:00.561Z,59.20
2023-05-20T11:23:29.470Z,59.10
2023-05-20T11:25:58.021Z,58.80
2023-05-20T11:28:25.849Z,58.50
2023-05-20T11:30:53.739Z,57.20
2023-05-20T11:33:20.815Z,57.40
2023-05-20T11:35:49.561Z,57.60
2023-05-20T11:38:16.993Z,57.90
2023-05-20T11:40:51.862Z,57.60
2023-05-20T11:43:19.833Z,57.10
2023-05-20T11:45:52.388Z,56.60
2023-05-20T11:48:19.746Z,57.20
2023-05-20T11:50:50.069Z,57.50
2023-05-20T11:53:18.845Z,56.60
2023-05-20T11:56:01.808Z,56.60
2023-05-20T11:58:32.436Z,55.90
2023-05-20T12:01:08.929Z,55.00
2023-05-20T12:03:41.253Z,54.70
2023-05-20T12:06:11.504Z,54.40
2023-05-20T12:08:38.445Z,56.60
2023-05-20T12:11:08.154Z,58.70
2023-05-20T12:13:35.572Z,60.00
2023-05-20T12:16:06.029Z,60.50
2023-05-20T12:18:35.492Z,61.10
2023-05-20T12:21:02.361Z,61.80
2023-05-20T12:23:30.850Z,62.20
2023-05-20T12:25:57.732Z,63.10
2023-05-20T12:28:24.603Z,63.40
2023-05-20T12:30:51.497Z,63.60
2023-05-20T12:33:21.408Z,64.00
2023-05-20T12:35:48.439Z,64.30
2023-05-20T12:38:15.294Z,65.00
2023-05-20T12:40:42.222Z,64.70
2023-05-20T12:43:09.254Z,64.50
2023-05-20T12:45:36.140Z,65.10
2023-05-20T12:48:03.374Z,65.40
2023-05-20T12:50:30.266Z,65.90
2023-05-20T12:52:57.100Z,66.00
2023-05-20T12:55:24.003Z,65.80
2023-05-20T12:57:52.118Z,64.80
2023-05-20T13:00:19.022Z,65.50
2023-05-20T13:02:46.002Z,66.00
2023-05-20T13:05:13.954Z,66.20
2023-05-20T13:07:40.813Z,65.90
2023-05-20T13:10:08.325Z,66.30
2023-05-20T13:12:35.516Z,66.60
2023-05-20T13:15:02.594Z,66.70
2023-05-20T13:17:29.486Z,66.40
2023-05-20T13:19:56.540Z,66.20
2023-05-20T13:22:23.452Z,65.90
2023-05-20T13:24:50.314Z,66.10
2023-05-20T13:27:17.109Z,66.80
2023-05-20T13:29:44.003Z,66.20
2023-05-20T13:32:10.933Z,65.10
2023-05-20T13:34:38.812Z,65.20
2023-05-20T13:37:06.568Z,65.10
2023-05-20T13:39:33.938Z,65.40
2023-05-20T13:42:00.979Z,65.60
2023-05-20T13:44:27.894Z,65.40
2023-05-20T13:46:54.736Z,65.50
2023-05-20T13:49:22.087Z,65.70
2023-05-20T13:51:48.932Z,64.30
2023-05-20T13:54:16.190Z,63.50
2023-05-20T13:56:43.094Z,63.70
2023-05-20T13:59:09.995Z,63.40
2023-05-20T14:01:38.950Z,63.60
2023-05-20T14:04:07.468Z,63.10
2023-05-20T14:06:34.420Z,63.40
2023-05-20T14:09:03.285Z,63.10
2023-05-20T14:11:30.116Z,62.60
2023-05-20T14:13:56.928Z,62.70
2023-05-20T14:16:23.937Z,62.80
2023-05-20T14:18:50.900Z,62.50
2023-05-20T14:21:17.758Z,62.70
2023-05-20T14:23:45.466Z,63.00
2023-05-20T14:26:12.694Z,63.20
2023-05-20T14:28:39.877Z,63.20
2023-05-20T14:31:10.553Z,62.50
2023-05-20T14:33:37.725Z,61.90
2023-05-20T14:36:05.011Z,62.10
2023-05-20T14:38:31.933Z,62.10
2023-05-20T14:40:59.343Z,62.50
2023-05-20T14:43:26.386Z,62.70
2023-05-20T14:45:53.639Z,63.00
2023-05-20T14:48:20.868Z,64.10
2023-05-20T14:50:50.471Z,63.70
2023-05-20T14:53:21.731Z,62.20
2023-05-20T14:55:49.104Z,62.60
2023-05-20T14:58:16.194Z,63.10
2023-05-20T15:00:43.635Z,63.10
2023-05-20T15:03:13.357Z,62.90
2023-05-20T15:05:44.244Z,63.40
2023-05-20T15:08:11.822Z,63.70
2023-05-20T15:10:42.481Z,63.90
2023-05-20T15:13:16.612Z,64.00
2023-05-20T15:15:43.737Z,64.30
2023-05-20T15:18:13.157Z,64.40
2023-05-20T15:20:44.008Z,64.50
2023-05-20T15:23:11.346Z,64.60
2023-05-20T15:25:41.070Z,64.60
2023-05-20T15:28:08.035Z,64.10
2023-05-20T15:30:38.338Z,64.00
2023-05-20T15:33:09.413Z,64.10
2023-05-20T15:35:40.075Z,64.30
2023-05-20T15:38:07.124Z,64.40
2023-05-20T15:40:34.287Z,65.00
2023-05-20T15:43:04.928Z,65.30
2023-05-20T15:45:32.543Z,65.90
2023-05-20T15:48:00.231Z,67.10
2023-05-20T15:50:28.335Z,66.40
2023-05-20T15:52:55.884Z,66.40
2023-05-20T15:55:25.822Z,66.80
2023-05-20T15:57:52.872Z,66.40
2023-05-20T16:00:21.205Z,66.30
2023-05-20T16:02:48.336Z,66.20
2023-05-20T16:05:19.091Z,66.60
2023-05-20T16:07:47.937Z,66.30
2023-05-20T16:10:14.994Z,66.20
2023-05-20T16:12:42.014Z,66.30
2023-05-20T16:15:10.149Z,66.10
2023-05-20T16:17:43.520Z,66.30
2023-05-20T16:20:17.225Z,66.10
2023-05-20T16:22:45.389Z,66.00
2023-05-20T16:25:13.243Z,65.40
2023-05-20T16:27:40.715Z,65.20
2023-05-20T16:30:08.587Z,65.50
2023-05-20T16:32:35.503Z,65.40
2023-05-20T16:35:02.814Z,65.10
2023-05-20T16:37:29.951Z,64.70
2023-05-20T16:39:57.022Z,65.20
2023-05-20T16:42:24.116Z,64.90
2023-05-20T16:44:56.137Z,65.40
2023-05-20T16:47:23.229Z,65.90
2023-05-20T16:49:50.310Z,66.10
2023-05-20T16:52:21.103Z,65.70
2023-05-20T16:54:52.388Z,65.50
2023-05-20T16:57:19.296Z,65.80
2023-05-20T16:59:49.581Z,66.30
2023-05-20T17:02:17.536Z,66.00
2023-05-20T17:04:44.391Z,65.70
2023-05-20T17:07:12.050Z,65.60
2023-05-20T17:09:38.931Z,65.20
2023-05-20T17:12:06.543Z,64.80
2023-05-20T17:14:36.122Z,64.80
2023-05-20T17:17:03.342Z,64.30
2023-05-20T17:19:33.241Z,63.10
2023-05-20T17:22:01.480Z,62.40
2023-05-20T17:24:29.311Z,60.50
2023-05-20T17:26:59.023Z,60.20
2023-05-20T17:29:26.010Z,59.90
2023-05-20T17:31:56.360Z,59.50
2023-05-20T17:34:23.385Z,59.00
2023-05-20T17:36:51.843Z,57.60
2023-05-20T17:39:21.995Z,56.30
2023-05-20T17:41:50.019Z,56.30
2023-05-20T17:44:17.036Z,56.10
2023-05-20T17:46:44.108Z,55.00
2023-05-20T17:49:11.296Z,54.10
2023-05-20T17:51:38.835Z,53.10
2023-05-20T17:54:06.163Z,53.00
2023-05-20T17:56:37.014Z,52.40
2023-05-20T17:59:06.570Z,52.10
2023-05-20T18:01:37.561Z,51.70
2023-05-20T18:04:05.874Z,51.60
2023-05-20T18:06:34.655Z,52.70
2023-05-20T18:09:02.240Z,51.20
2023-05-20T18:11:32.244Z,50.70
2023-05-20T18:14:00.079Z,50.50
2023-05-20T18:16:28.403Z,50.10
2023-05-20T18:18:56.069Z,49.80
2023-05-20T18:21:24.192Z,49.00
2023-05-20T18:23:51.193Z,49.70
2023-05-20T18:26:21.954Z,49.80
2023-05-20T18:28:50.344Z,49.90
2023-05-20T18:31:17.601Z,49.80
2023-05-20T18:33:44.994Z,49.80
2023-05-20T18:36:22.134Z,50.40
2023-05-20T18:38:49.664Z,51.40
2023-05-20T18:41:16.712Z,52.50
2023-05-20T18:43:47.551Z,53.90
2023-05-20T18:46:21.645Z,54.90
2023-05-20T18:48:53.340Z,55.60
2023-05-20T18:51:23.660Z,56.10
2023-05-20T18:53:54.000Z,56.90
2023-05-20T18:56:29.523Z,57.80
2023-05-20T18:59:00.892Z,58.70
2023-05-20T19:01:27.959Z,59.40
2023-05-20T19:04:02.170Z,59.60
2023-05-20T19:06:37.801Z,60.00
2023-05-20T19:09:05.959Z,61.20
2023-05-20T19:11:36.560Z,61.80
2023-05-20T19:14:04.647Z,62.70
2023-05-20T19:16:32.507Z,63.10
2023-05-20T19:19:03.990Z,64.70
2023-05-20T19:21:37.671Z,64.50
2023-05-20T19:24:09.100Z,65.00
2023-05-20T19:26:37.109Z,65.70
2023-05-20T19:29:04.528Z,66.10
2023-05-20T19:31:34.910Z,67.30
2023-05-20T19:34:05.984Z,67.10
2023-05-20T19:36:33.337Z,67.70
2023-05-20T19:39:06.260Z,67.90
2023-05-20T19:41:33.402Z,68.50
2023-05-20T19:44:04.654Z,68.80
2023-05-20T19:46:33.118Z,69.50
2023-05-20T19:49:00.778Z,69.80
2023-05-20T19:51:31.568Z,70.20
2023-05-20T19:53:58.837Z,70.80
2023-05-20T19:56:30.234Z,71.10
2023-05-20T19:59:08.164Z,71.60
2023-05-20T20:01:39.291Z,71.60
2023-05-20T20:04:09.189Z,71.60
2023-05-20T20:06:36.466Z,72.10
2023-05-20T20:09:05.009Z,72.70
2023-05-20T20:11:33.264Z,73.20
2023-05-20T20:14:00.334Z,73.80
2023-05-20T20:16:27.594Z,74.10
2023-05-20T20:18:58.220Z,74.40
2023-05-20T20:21:29.099Z,74.80
2023-05-20T20:24:00.306Z,75.20
2023-05-20T20:26:30.867Z,75.40
2023-05-20T20:28:57.899Z,75.70
2023-05-20T20:31:32.562Z,76.00
2023-05-20T20:34:03.431Z,76.50
2023-05-20T20:36:35.415Z,76.80
2023-05-20T20:39:06.670Z,77.40
2023-05-20T20:41:38.944Z,77.70
2023-05-20T20:44:07.592Z,78.10
2023-05-20T20:46:37.773Z,78.20
2023-05-20T20:49:09.232Z,78.40
2023-05-20T20:51:36.481Z,78.70
2023-05-20T20:54:04.429Z,78.60
2023-05-20T20:56:31.690Z,79.20
2023-05-20T20:58:59.132Z,79.00
2023-05-20T21:01:28.168Z,79.40
2023-05-20T21:03:55.657Z,79.80
2023-05-20T21:06:27.669Z,80.10
2023-05-20T21:08:59.264Z,80.40
2023-05-20T21:11:28.164Z,80.60
2023-05-20T21:13:57.740Z,81.60
2023-05-20T21:16:25.615Z,81.10
2023-05-20T21:18:56.926Z,81.40
2023-05-20T21:21:24.115Z,81.70
2023-05-20T21:23:52.323Z,81.90
2023-05-20T21:26:25.204Z,82.20
2023-05-20T21:28:53.959Z,82.40
2023-05-20T21:31:21.474Z,82.70
2023-05-20T21:33:52.048Z,82.80
2023-05-20T21:36:21.171Z,83.80
2023-05-20T21:38:51.207Z,83.20
2023-05-20T21:41:19.465Z,83.40
2023-05-20T21:43:46.949Z,83.50
2023-05-20T21:46:14.468Z,83.70
2023-05-20T21:48:42.251Z,84.30
2023-05-20T21:51:09.672Z,84.30
2023-05-20T21:53:37.043Z,84.50
2023-05-20T21:56:05.034Z,84.80
2023-05-20T21:58:41.091Z,85.00
2023-05-20T22:01:10.349Z,85.10
2023-05-20T22:03:40.129Z,85.20
2023-05-20T22:06:07.826Z,85.30
2023-05-20T22:08:35.421Z,85.40
2023-05-20T22:11:07.414Z,85.60
2023-05-20T22:13:36.103Z,85.70
2023-05-20T22:16:07.988Z,85.90
2023-05-20T22:18:37.796Z,86.10
2023-05-20T22:21:06.283Z,86.20
2023-05-20T22:23:33.931Z,86.40
2023-05-20T22:26:01.883Z,86.60
2023-05-20T22:28:29.287Z,86.70
2023-05-20T22:30:57.133Z,86.80
2023-05-20T22:33:31.290Z,86.90
2023-05-20T22:35:58.944Z,87.30
2023-05-20T22:38:26.265Z,87.30
2023-05-20T22:41:00.691Z,87.40
2023-05-20T22:43:29.110Z,87.60
2023-05-20T22:45:56.691Z,87.80
2023-05-20T22:48:25.216Z,88.10
2023-05-20T22:50:54.207Z,88.20
2023-05-20T22:53:23.191Z,88.40
2023-05-20T22:55:52.369Z,88.70
2023-05-20T22:58:24.271Z,88.80
2023-05-20T23:00:51.588Z,89.00
2023-05-20T23:03:22.027Z,89.20
2023-05-20T23:05:50.053Z,89.70
2023-05-20T23:08:17.318Z,90.10
2023-05-20T23:10:48.620Z,90.30
2023-05-20T23:13:16.129Z,90.50
2023-05-20T23:15:47.976Z,90.60
2023-05-20T23:18:18.660Z,90.70
2023-05-20T23:20:46.231Z,90.80
2023-05-20T23:23:13.586Z,90.90
2023-05-20T23:25:45.878Z,91.00
2023-05-20T23:28:14.489Z,91.10
2023-05-20T23:30:45.681Z,91.10
2023-05-20T23:33:13.444Z,91.30
2023-05-20T23:35:40.809Z,91.40
2023-05-20T23:38:09.212Z,91.30
2023-05-20T23:40:36.508Z,91.20
2023-05-20T23:43:03.744Z,91.10
2023-05-20T23:45:30.969Z,91.10
2023-05-20T23:47:59.269Z,91.20
2023-05-20T23:50:27.987Z,91.20
2023-05-20T23:52:57.488Z,91.20
2023-05-20T23:55:25.653Z,91.20
2023-05-20T23:57:52.886Z,91.30
